sensor_id;sensor_type;location;lat;lon;timestamp;P1;durP1;ratioP1;P2;durP2;ratioP2
4555;SDS011;2290;48.674;9.018;2023-07-24T00:02:23;9.80;;;5.50;;
4555;SDS011;2290;48.674;9.018;2023-07-24T00:04:49;9.43;;;5.30;;
4555;SDS011;2290;48.674;9.018;2023-07-24T00:07:16;10.97;;;5.70;;
4555;SDS011;2290;48.674;9.018;2023-07-24T00:09:41;11.87;;;4.53;;
4555;SDS011;2290;48.674;9.018;2023-07-24T00:12:07;8.13;;;4.63;;
4555;SDS011;2290;48.674;9.018;2023-07-24T00:14:33;12.57;;;5.57;;
4555;SDS011;2290;48.674;9.018;2023-07-24T00:16:58;9.13;;;5.20;;
4555;SDS011;2290;48.674;9.018;2023-07-24T00:19:24;8.60;;;5.20;;
4555;SDS011;2290;48.674;9.018;2023-07-24T00:21:49;8.07;;;5.20;;
4555;SDS011;2290;48.674;9.018;2023-07-24T00:24:15;10.50;;;5.60;;
4555;SDS011;2290;48.674;9.018;2023-07-24T00:26:40;9.40;;;5.67;;
4555;SDS011;2290;48.674;9.018;2023-07-24T00:29:06;8.10;;;5.13;;
4555;SDS011;2290;48.674;9.018;2023-07-24T00:31:32;10.40;;;4.80;;
4555;SDS011;2290;48.674;9.018;2023-07-24T00:33:57;10.00;;;5.23;;
4555;SDS011;2290;48.674;9.018;2023-07-24T00:36:25;13.37;;;6.17;;
4555;SDS011;2290;48.674;9.018;2023-07-24T00:38:51;8.40;;;4.47;;
4555;SDS011;2290;48.674;9.018;2023-07-24T00:41:17;8.83;;;5.20;;
4555;SDS011;2290;48.674;9.018;2023-07-24T00:43:42;10.03;;;5.73;;
4555;SDS011;2290;48.674;9.018;2023-07-24T00:46:09;12.87;;;5.40;;
4555;SDS011;2290;48.674;9.018;2023-07-24T00:48:35;9.50;;;5.70;;
4555;SDS011;2290;48.674;9.018;2023-07-24T00:51:02;8.10;;;5.10;;
4555;SDS011;2290;48.674;9.018;2023-07-24T00:53:27;6.80;;;4.43;;
4555;SDS011;2290;48.674;9.018;2023-07-24T00:55:53;9.53;;;5.33;;
4555;SDS011;2290;48.674;9.018;2023-07-24T00:58:19;9.53;;;5.10;;
4555;SDS011;2290;48.674;9.018;2023-07-24T01:00:45;6.93;;;4.40;;
4555;SDS011;2290;48.674;9.018;2023-07-24T01:03:10;9.70;;;5.40;;
4555;SDS011;2290;48.674;9.018;2023-07-24T01:05:37;9.90;;;5.17;;
4555;SDS011;2290;48.674;9.018;2023-07-24T01:08:03;9.80;;;5.40;;
4555;SDS011;2290;48.674;9.018;2023-07-24T01:10:29;13.30;;;5.60;;
4555;SDS011;2290;48.674;9.018;2023-07-24T01:13:05;8.50;;;5.20;;
4555;SDS011;2290;48.674;9.018;2023-07-24T01:15:58;10.93;;;5.80;;
4555;SDS011;2290;48.674;9.018;2023-07-24T01:18:28;9.53;;;4.73;;
4555;SDS011;2290;48.674;9.018;2023-07-24T01:20:57;9.47;;;5.00;;
4555;SDS011;2290;48.674;9.018;2023-07-24T01:25:53;9.67;;;4.83;;
4555;SDS011;2290;48.674;9.018;2023-07-24T01:28:22;7.63;;;4.57;;
4555;SDS011;2290;48.674;9.018;2023-07-24T01:30:47;7.17;;;4.67;;
4555;SDS011;2290;48.674;9.018;2023-07-24T01:33:13;9.13;;;5.10;;
4555;SDS011;2290;48.674;9.018;2023-07-24T01:35:39;8.57;;;4.90;;
4555;SDS011;2290;48.674;9.018;2023-07-24T01:38:11;8.93;;;5.10;;
4555;SDS011;2290;48.674;9.018;2023-07-24T01:40:41;13.50;;;5.07;;
4555;SDS011;2290;48.674;9.018;2023-07-24T01:43:08;8.40;;;5.10;;
4555;SDS011;2290;48.674;9.018;2023-07-24T01:45:34;8.97;;;5.33;;
4555;SDS011;2290;48.674;9.018;2023-07-24T01:48:01;7.50;;;4.57;;
4555;SDS011;2290;48.674;9.018;2023-07-24T01:50:28;12.07;;;5.40;;
4555;SDS011;2290;48.674;9.018;2023-07-24T01:52:54;8.93;;;5.30;;
4555;SDS011;2290;48.674;9.018;2023-07-24T01:55:20;9.80;;;4.67;;
4555;SDS011;2290;48.674;9.018;2023-07-24T01:57:46;8.83;;;5.00;;
4555;SDS011;2290;48.674;9.018;2023-07-24T02:00:12;10.37;;;5.03;;
4555;SDS011;2290;48.674;9.018;2023-07-24T02:02:38;9.90;;;5.23;;
4555;SDS011;2290;48.674;9.018;2023-07-24T02:05:03;8.90;;;5.03;;
4555;SDS011;2290;48.674;9.018;2023-07-24T02:07:29;10.90;;;5.53;;
4555;SDS011;2290;48.674;9.018;2023-07-24T02:09:55;7.77;;;4.80;;
4555;SDS011;2290;48.674;9.018;2023-07-24T02:12:20;8.33;;;5.03;;
4555;SDS011;2290;48.674;9.018;2023-07-24T02:14:46;8.80;;;5.23;;
4555;SDS011;2290;48.674;9.018;2023-07-24T02:17:14;7.77;;;4.47;;
4555;SDS011;2290;48.674;9.018;2023-07-24T02:19:42;8.47;;;5.20;;
4555;SDS011;2290;48.674;9.018;2023-07-24T02:22:08;8.03;;;4.73;;
4555;SDS011;2290;48.674;9.018;2023-07-24T02:24:33;8.73;;;4.77;;
4555;SDS011;2290;48.674;9.018;2023-07-24T02:26:59;8.77;;;5.47;;
4555;SDS011;2290;48.674;9.018;2023-07-24T02:29:25;8.00;;;4.83;;
4555;SDS011;2290;48.674;9.018;2023-07-24T02:31:52;9.30;;;4.90;;
4555;SDS011;2290;48.674;9.018;2023-07-24T02:34:19;7.80;;;4.73;;
4555;SDS011;2290;48.674;9.018;2023-07-24T02:36:49;7.60;;;4.60;;
4555;SDS011;2290;48.674;9.018;2023-07-24T02:39:15;8.53;;;4.67;;
4555;SDS011;2290;48.674;9.018;2023-07-24T02:41:40;8.00;;;4.77;;
4555;SDS011;2290;48.674;9.018;2023-07-24T02:44:06;8.73;;;5.10;;
4555;SDS011;2290;48.674;9.018;2023-07-24T02:46:31;8.10;;;5.13;;
4555;SDS011;2290;48.674;9.018;2023-07-24T02:48:57;10.37;;;4.80;;
4555;SDS011;2290;48.674;9.018;2023-07-24T02:51:22;11.77;;;5.70;;
4555;SDS011;2290;48.674;9.018;2023-07-24T02:53:48;8.80;;;5.50;;
4555;SDS011;2290;48.674;9.018;2023-07-24T02:56:13;7.97;;;4.60;;
4555;SDS011;2290;48.674;9.018;2023-07-24T02:58:39;8.63;;;4.70;;
4555;SDS011;2290;48.674;9.018;2023-07-24T03:01:05;10.20;;;4.90;;
4555;SDS011;2290;48.674;9.018;2023-07-24T03:03:32;8.97;;;4.90;;
4555;SDS011;2290;48.674;9.018;2023-07-24T03:05:58;10.17;;;5.50;;
4555;SDS011;2290;48.674;9.018;2023-07-24T03:08:23;8.57;;;5.00;;
4555;SDS011;2290;48.674;9.018;2023-07-24T03:10:49;8.03;;;4.60;;
4555;SDS011;2290;48.674;9.018;2023-07-24T03:13:14;8.53;;;4.83;;
4555;SDS011;2290;48.674;9.018;2023-07-24T03:15:40;10.70;;;6.07;;
4555;SDS011;2290;48.674;9.018;2023-07-24T03:18:06;7.70;;;4.70;;
4555;SDS011;2290;48.674;9.018;2023-07-24T03:20:31;9.50;;;4.10;;
4555;SDS011;2290;48.674;9.018;2023-07-24T03:22:57;14.07;;;5.40;;
4555;SDS011;2290;48.674;9.018;2023-07-24T03:25:23;10.30;;;5.10;;
4555;SDS011;2290;48.674;9.018;2023-07-24T03:27:48;9.00;;;5.23;;
4555;SDS011;2290;48.674;9.018;2023-07-24T03:30:14;7.30;;;4.43;;
4555;SDS011;2290;48.674;9.018;2023-07-24T03:32:39;10.07;;;4.70;;
4555;SDS011;2290;48.674;9.018;2023-07-24T03:35:05;9.90;;;5.03;;
4555;SDS011;2290;48.674;9.018;2023-07-24T03:37:31;7.70;;;4.50;;
4555;SDS011;2290;48.674;9.018;2023-07-24T03:39:58;7.20;;;4.40;;
4555;SDS011;2290;48.674;9.018;2023-07-24T03:42:28;8.90;;;4.93;;
4555;SDS011;2290;48.674;9.018;2023-07-24T03:44:54;7.17;;;4.50;;
4555;SDS011;2290;48.674;9.018;2023-07-24T03:47:21;7.87;;;4.93;;
4555;SDS011;2290;48.674;9.018;2023-07-24T03:49:46;9.23;;;5.00;;
4555;SDS011;2290;48.674;9.018;2023-07-24T03:52:12;7.80;;;4.60;;
4555;SDS011;2290;48.674;9.018;2023-07-24T03:54:37;8.53;;;4.70;;
4555;SDS011;2290;48.674;9.018;2023-07-24T03:57:03;8.30;;;4.60;;
4555;SDS011;2290;48.674;9.018;2023-07-24T03:59:29;8.37;;;4.67;;
4555;SDS011;2290;48.674;9.018;2023-07-24T04:01:55;9.00;;;4.97;;
4555;SDS011;2290;48.674;9.018;2023-07-24T04:04:22;7.50;;;4.20;;
4555;SDS011;2290;48.674;9.018;2023-07-24T04:06:48;9.57;;;4.67;;
4555;SDS011;2290;48.674;9.018;2023-07-24T04:09:15;8.83;;;4.23;;
4555;SDS011;2290;48.674;9.018;2023-07-24T04:11:41;8.90;;;5.00;;
4555;SDS011;2290;48.674;9.018;2023-07-24T04:14:07;8.17;;;4.70;;
4555;SDS011;2290;48.674;9.018;2023-07-24T04:16:33;8.60;;;4.60;;
4555;SDS011;2290;48.674;9.018;2023-07-24T04:19:00;9.17;;;5.10;;
4555;SDS011;2290;48.674;9.018;2023-07-24T04:21:27;9.47;;;5.23;;
4555;SDS011;2290;48.674;9.018;2023-07-24T04:23:53;8.37;;;4.63;;
4555;SDS011;2290;48.674;9.018;2023-07-24T04:26:19;8.43;;;5.10;;
4555;SDS011;2290;48.674;9.018;2023-07-24T04:28:45;9.00;;;4.50;;
4555;SDS011;2290;48.674;9.018;2023-07-24T04:31:11;8.77;;;4.60;;
4555;SDS011;2290;48.674;9.018;2023-07-24T04:33:38;12.00;;;5.33;;
4555;SDS011;2290;48.674;9.018;2023-07-24T04:36:04;8.10;;;5.03;;
4555;SDS011;2290;48.674;9.018;2023-07-24T04:38:30;8.80;;;4.33;;
4555;SDS011;2290;48.674;9.018;2023-07-24T04:40:56;9.30;;;5.10;;
4555;SDS011;2290;48.674;9.018;2023-07-24T04:43:21;8.80;;;5.27;;
4555;SDS011;2290;48.674;9.018;2023-07-24T04:45:47;8.03;;;5.03;;
4555;SDS011;2290;48.674;9.018;2023-07-24T04:48:13;10.03;;;4.97;;
4555;SDS011;2290;48.674;9.018;2023-07-24T04:50:38;11.90;;;5.40;;
4555;SDS011;2290;48.674;9.018;2023-07-24T04:53:04;9.47;;;5.50;;
4555;SDS011;2290;48.674;9.018;2023-07-24T04:55:29;8.97;;;5.07;;
4555;SDS011;2290;48.674;9.018;2023-07-24T04:57:55;11.03;;;5.50;;
4555;SDS011;2290;48.674;9.018;2023-07-24T05:00:20;8.40;;;4.13;;
4555;SDS011;2290;48.674;9.018;2023-07-24T05:02:46;12.00;;;5.23;;
4555;SDS011;2290;48.674;9.018;2023-07-24T05:05:12;9.97;;;5.77;;
4555;SDS011;2290;48.674;9.018;2023-07-24T05:07:37;13.57;;;5.53;;
4555;SDS011;2290;48.674;9.018;2023-07-24T05:10:03;10.30;;;5.30;;
4555;SDS011;2290;48.674;9.018;2023-07-24T05:12:29;9.47;;;5.30;;
4555;SDS011;2290;48.674;9.018;2023-07-24T05:14:54;8.73;;;5.10;;
4555;SDS011;2290;48.674;9.018;2023-07-24T05:17:20;9.70;;;5.23;;
4555;SDS011;2290;48.674;9.018;2023-07-24T05:19:45;8.87;;;4.90;;
4555;SDS011;2290;48.674;9.018;2023-07-24T05:22:11;11.20;;;5.07;;
4555;SDS011;2290;48.674;9.018;2023-07-24T05:24:37;10.00;;;5.70;;
4555;SDS011;2290;48.674;9.018;2023-07-24T05:27:03;13.83;;;5.43;;
4555;SDS011;2290;48.674;9.018;2023-07-24T05:29:30;9.03;;;4.90;;
4555;SDS011;2290;48.674;9.018;2023-07-24T05:31:55;8.93;;;4.77;;
4555;SDS011;2290;48.674;9.018;2023-07-24T05:34:21;9.07;;;5.43;;
4555;SDS011;2290;48.674;9.018;2023-07-24T05:36:46;7.03;;;4.50;;
4555;SDS011;2290;48.674;9.018;2023-07-24T05:39:12;9.53;;;5.33;;
4555;SDS011;2290;48.674;9.018;2023-07-24T05:41:38;8.77;;;5.00;;
4555;SDS011;2290;48.674;9.018;2023-07-24T05:44:03;9.67;;;5.10;;
4555;SDS011;2290;48.674;9.018;2023-07-24T05:46:29;8.43;;;5.00;;
4555;SDS011;2290;48.674;9.018;2023-07-24T05:48:54;11.90;;;5.37;;
4555;SDS011;2290;48.674;9.018;2023-07-24T05:51:21;8.60;;;4.73;;
4555;SDS011;2290;48.674;9.018;2023-07-24T05:53:47;10.57;;;4.87;;
4555;SDS011;2290;48.674;9.018;2023-07-24T05:56:13;8.73;;;5.70;;
4555;SDS011;2290;48.674;9.018;2023-07-24T05:58:38;7.70;;;4.83;;
4555;SDS011;2290;48.674;9.018;2023-07-24T06:01:04;9.57;;;4.73;;
4555;SDS011;2290;48.674;9.018;2023-07-24T06:03:32;12.30;;;5.50;;
4555;SDS011;2290;48.674;9.018;2023-07-24T06:05:58;10.73;;;4.70;;
4555;SDS011;2290;48.674;9.018;2023-07-24T06:08:23;9.80;;;6.40;;
4555;SDS011;2290;48.674;9.018;2023-07-24T06:10:49;8.70;;;4.80;;
4555;SDS011;2290;48.674;9.018;2023-07-24T06:13:16;9.67;;;5.90;;
4555;SDS011;2290;48.674;9.018;2023-07-24T06:15:42;9.27;;;5.07;;
4555;SDS011;2290;48.674;9.018;2023-07-24T06:18:08;12.23;;;4.93;;
4555;SDS011;2290;48.674;9.018;2023-07-24T06:20:34;8.80;;;5.03;;
4555;SDS011;2290;48.674;9.018;2023-07-24T06:23:00;9.93;;;5.17;;
4555;SDS011;2290;48.674;9.018;2023-07-24T06:25:25;9.23;;;5.37;;
4555;SDS011;2290;48.674;9.018;2023-07-24T06:27:51;9.97;;;5.87;;
4555;SDS011;2290;48.674;9.018;2023-07-24T06:30:16;9.57;;;5.50;;
4555;SDS011;2290;48.674;9.018;2023-07-24T06:32:42;10.97;;;5.67;;
4555;SDS011;2290;48.674;9.018;2023-07-24T06:35:08;9.73;;;5.50;;
4555;SDS011;2290;48.674;9.018;2023-07-24T06:37:34;9.57;;;5.33;;
4555;SDS011;2290;48.674;9.018;2023-07-24T06:39:59;10.83;;;6.47;;
4555;SDS011;2290;48.674;9.018;2023-07-24T06:42:25;9.80;;;5.67;;
4555;SDS011;2290;48.674;9.018;2023-07-24T06:44:51;9.93;;;6.00;;
4555;SDS011;2290;48.674;9.018;2023-07-24T06:47:16;7.93;;;4.93;;
4555;SDS011;2290;48.674;9.018;2023-07-24T06:49:42;10.10;;;6.17;;
4555;SDS011;2290;48.674;9.018;2023-07-24T06:52:08;9.30;;;5.37;;
4555;SDS011;2290;48.674;9.018;2023-07-24T06:54:33;9.63;;;5.53;;
4555;SDS011;2290;48.674;9.018;2023-07-24T06:56:59;10.57;;;5.73;;
4555;SDS011;2290;48.674;9.018;2023-07-24T06:59:24;9.80;;;6.07;;
4555;SDS011;2290;48.674;9.018;2023-07-24T07:01:50;9.77;;;5.60;;
4555;SDS011;2290;48.674;9.018;2023-07-24T07:04:16;9.20;;;5.33;;
4555;SDS011;2290;48.674;9.018;2023-07-24T07:06:41;10.00;;;6.10;;
4555;SDS011;2290;48.674;9.018;2023-07-24T07:09:07;11.00;;;5.60;;
4555;SDS011;2290;48.674;9.018;2023-07-24T07:11:32;9.00;;;5.40;;
4555;SDS011;2290;48.674;9.018;2023-07-24T07:13:58;9.43;;;5.17;;
4555;SDS011;2290;48.674;9.018;2023-07-24T07:16:23;13.20;;;6.20;;
4555;SDS011;2290;48.674;9.018;2023-07-24T07:18:49;9.37;;;5.33;;
4555;SDS011;2290;48.674;9.018;2023-07-24T07:21:14;11.00;;;6.10;;
4555;SDS011;2290;48.674;9.018;2023-07-24T07:23:40;7.80;;;5.57;;
4555;SDS011;2290;48.674;9.018;2023-07-24T07:26:06;10.43;;;6.20;;
4555;SDS011;2290;48.674;9.018;2023-07-24T07:28:31;11.57;;;6.37;;
4555;SDS011;2290;48.674;9.018;2023-07-24T07:30:57;8.83;;;5.37;;
4555;SDS011;2290;48.674;9.018;2023-07-24T07:33:23;8.90;;;6.10;;
4555;SDS011;2290;48.674;9.018;2023-07-24T07:35:49;10.53;;;5.90;;
4555;SDS011;2290;48.674;9.018;2023-07-24T07:38:15;9.30;;;5.80;;
4555;SDS011;2290;48.674;9.018;2023-07-24T07:40:41;10.10;;;5.43;;
4555;SDS011;2290;48.674;9.018;2023-07-24T07:43:06;9.23;;;5.33;;
4555;SDS011;2290;48.674;9.018;2023-07-24T07:45:32;11.80;;;5.87;;
4555;SDS011;2290;48.674;9.018;2023-07-24T07:47:57;14.00;;;6.47;;
4555;SDS011;2290;48.674;9.018;2023-07-24T07:50:23;11.53;;;6.27;;
4555;SDS011;2290;48.674;9.018;2023-07-24T07:52:50;9.00;;;5.30;;
4555;SDS011;2290;48.674;9.018;2023-07-24T07:55:17;13.60;;;6.13;;
4555;SDS011;2290;48.674;9.018;2023-07-24T07:57:45;9.63;;;5.57;;
4555;SDS011;2290;48.674;9.018;2023-07-24T08:00:11;12.57;;;6.73;;
4555;SDS011;2290;48.674;9.018;2023-07-24T08:02:37;11.00;;;6.10;;
4555;SDS011;2290;48.674;9.018;2023-07-24T08:05:07;12.30;;;5.77;;
4555;SDS011;2290;48.674;9.018;2023-07-24T08:07:33;9.50;;;6.10;;
4555;SDS011;2290;48.674;9.018;2023-07-24T08:09:59;8.60;;;5.10;;
4555;SDS011;2290;48.674;9.018;2023-07-24T08:12:25;10.33;;;5.90;;
4555;SDS011;2290;48.674;9.018;2023-07-24T08:14:51;7.37;;;5.13;;
4555;SDS011;2290;48.674;9.018;2023-07-24T08:17:17;9.17;;;4.80;;
4555;SDS011;2290;48.674;9.018;2023-07-24T08:19:42;7.27;;;3.90;;
4555;SDS011;2290;48.674;9.018;2023-07-24T08:22:09;9.73;;;4.07;;
4555;SDS011;2290;48.674;9.018;2023-07-24T08:24:35;9.57;;;4.27;;
4555;SDS011;2290;48.674;9.018;2023-07-24T08:27:02;7.27;;;4.03;;
4555;SDS011;2290;48.674;9.018;2023-07-24T08:29:28;6.40;;;3.93;;
4555;SDS011;2290;48.674;9.018;2023-07-24T08:31:54;5.90;;;3.83;;
4555;SDS011;2290;48.674;9.018;2023-07-24T08:34:20;7.90;;;4.70;;
4555;SDS011;2290;48.674;9.018;2023-07-24T08:36:45;8.30;;;5.70;;
4555;SDS011;2290;48.674;9.018;2023-07-24T08:39:11;7.90;;;4.23;;
4555;SDS011;2290;48.674;9.018;2023-07-24T08:41:37;5.93;;;3.50;;
4555;SDS011;2290;48.674;9.018;2023-07-24T08:44:07;8.13;;;4.40;;
4555;SDS011;2290;48.674;9.018;2023-07-24T08:46:38;6.00;;;4.07;;
4555;SDS011;2290;48.674;9.018;2023-07-24T08:49:06;7.00;;;5.10;;
4555;SDS011;2290;48.674;9.018;2023-07-24T08:51:39;7.70;;;3.87;;
4555;SDS011;2290;48.674;9.018;2023-07-24T08:54:10;11.83;;;6.10;;
4555;SDS011;2290;48.674;9.018;2023-07-24T08:56:38;7.20;;;4.50;;
4555;SDS011;2290;48.674;9.018;2023-07-24T08:59:06;8.47;;;4.73;;
4555;SDS011;2290;48.674;9.018;2023-07-24T09:01:32;7.80;;;4.63;;
4555;SDS011;2290;48.674;9.018;2023-07-24T09:03:57;8.97;;;4.40;;
4555;SDS011;2290;48.674;9.018;2023-07-24T09:06:23;6.13;;;3.73;;
4555;SDS011;2290;48.674;9.018;2023-07-24T09:08:53;5.47;;;3.87;;
4555;SDS011;2290;48.674;9.018;2023-07-24T09:11:19;7.10;;;4.40;;
4555;SDS011;2290;48.674;9.018;2023-07-24T09:13:44;6.50;;;4.00;;
4555;SDS011;2290;48.674;9.018;2023-07-24T09:16:21;8.50;;;4.13;;
4555;SDS011;2290;48.674;9.018;2023-07-24T09:18:52;7.93;;;3.50;;
4555;SDS011;2290;48.674;9.018;2023-07-24T09:21:31;5.63;;;3.13;;
4555;SDS011;2290;48.674;9.018;2023-07-24T09:24:13;5.90;;;3.60;;
4555;SDS011;2290;48.674;9.018;2023-07-24T09:26:50;6.27;;;3.90;;
4555;SDS011;2290;48.674;9.018;2023-07-24T09:29:17;6.30;;;3.80;;
4555;SDS011;2290;48.674;9.018;2023-07-24T09:31:43;7.93;;;4.33;;
4555;SDS011;2290;48.674;9.018;2023-07-24T09:34:14;6.83;;;4.23;;
4555;SDS011;2290;48.674;9.018;2023-07-24T09:36:43;6.53;;;4.47;;
4555;SDS011;2290;48.674;9.018;2023-07-24T09:39:09;6.40;;;4.17;;
4555;SDS011;2290;48.674;9.018;2023-07-24T09:41:37;7.53;;;4.43;;
4555;SDS011;2290;48.674;9.018;2023-07-24T09:44:06;8.40;;;3.97;;
4555;SDS011;2290;48.674;9.018;2023-07-24T09:46:32;7.40;;;4.40;;
4555;SDS011;2290;48.674;9.018;2023-07-24T09:48:59;6.73;;;4.20;;
4555;SDS011;2290;48.674;9.018;2023-07-24T09:51:25;7.23;;;4.07;;
4555;SDS011;2290;48.674;9.018;2023-07-24T09:53:55;7.40;;;4.50;;
4555;SDS011;2290;48.674;9.018;2023-07-24T09:56:25;7.60;;;3.97;;
4555;SDS011;2290;48.674;9.018;2023-07-24T09:58:52;8.73;;;4.67;;
4555;SDS011;2290;48.674;9.018;2023-07-24T10:01:21;6.33;;;4.57;;
4555;SDS011;2290;48.674;9.018;2023-07-24T10:03:48;7.83;;;4.73;;
4555;SDS011;2290;48.674;9.018;2023-07-24T10:06:16;7.53;;;4.50;;
4555;SDS011;2290;48.674;9.018;2023-07-24T10:08:42;9.73;;;4.90;;
4555;SDS011;2290;48.674;9.018;2023-07-24T10:11:08;6.27;;;4.60;;
4555;SDS011;2290;48.674;9.018;2023-07-24T10:13:35;9.33;;;5.13;;
4555;SDS011;2290;48.674;9.018;2023-07-24T10:16:02;8.90;;;5.03;;
4555;SDS011;2290;48.674;9.018;2023-07-24T10:18:33;7.50;;;4.80;;
4555;SDS011;2290;48.674;9.018;2023-07-24T10:21:04;8.67;;;4.93;;
4555;SDS011;2290;48.674;9.018;2023-07-24T10:23:43;8.00;;;4.30;;
4555;SDS011;2290;48.674;9.018;2023-07-24T10:26:11;10.83;;;4.37;;
4555;SDS011;2290;48.674;9.018;2023-07-24T10:28:37;9.80;;;4.80;;
4555;SDS011;2290;48.674;9.018;2023-07-24T10:31:22;6.47;;;4.37;;
4555;SDS011;2290;48.674;9.018;2023-07-24T10:33:55;8.90;;;5.53;;
4555;SDS011;2290;48.674;9.018;2023-07-24T10:36:32;9.43;;;5.13;;
4555;SDS011;2290;48.674;9.018;2023-07-24T10:39:01;7.73;;;4.83;;
4555;SDS011;2290;48.674;9.018;2023-07-24T10:41:34;7.57;;;5.37;;
4555;SDS011;2290;48.674;9.018;2023-07-24T10:44:01;7.40;;;4.60;;
4555;SDS011;2290;48.674;9.018;2023-07-24T10:46:35;7.90;;;4.80;;
4555;SDS011;2290;48.674;9.018;2023-07-24T10:49:02;7.57;;;4.80;;
4555;SDS011;2290;48.674;9.018;2023-07-24T10:51:29;8.33;;;5.30;;
4555;SDS011;2290;48.674;9.018;2023-07-24T10:53:58;8.40;;;4.70;;
4555;SDS011;2290;48.674;9.018;2023-07-24T10:56:25;9.60;;;4.97;;
4555;SDS011;2290;48.674;9.018;2023-07-24T10:58:50;8.00;;;4.70;;
4555;SDS011;2290;48.674;9.018;2023-07-24T11:01:17;12.40;;;4.87;;
4555;SDS011;2290;48.674;9.018;2023-07-24T11:03:43;9.63;;;5.50;;
4555;SDS011;2290;48.674;9.018;2023-07-24T11:06:13;9.10;;;4.70;;
4555;SDS011;2290;48.674;9.018;2023-07-24T11:08:53;6.83;;;4.40;;
4555;SDS011;2290;48.674;9.018;2023-07-24T11:11:33;8.33;;;4.70;;
4555;SDS011;2290;48.674;9.018;2023-07-24T11:14:03;9.40;;;4.83;;
4555;SDS011;2290;48.674;9.018;2023-07-24T11:16:29;7.30;;;5.07;;
4555;SDS011;2290;48.674;9.018;2023-07-24T11:18:56;7.50;;;4.67;;
4555;SDS011;2290;48.674;9.018;2023-07-24T11:21:22;8.57;;;4.70;;
4555;SDS011;2290;48.674;9.018;2023-07-24T11:23:49;6.87;;;4.70;;
4555;SDS011;2290;48.674;9.018;2023-07-24T11:26:22;9.33;;;4.40;;
4555;SDS011;2290;48.674;9.018;2023-07-24T11:28:52;8.10;;;4.80;;
4555;SDS011;2290;48.674;9.018;2023-07-24T11:31:18;9.60;;;4.67;;
4555;SDS011;2290;48.674;9.018;2023-07-24T11:33:47;6.43;;;4.20;;
4555;SDS011;2290;48.674;9.018;2023-07-24T11:36:14;9.60;;;4.50;;
4555;SDS011;2290;48.674;9.018;2023-07-24T11:38:41;7.13;;;4.53;;
4555;SDS011;2290;48.674;9.018;2023-07-24T11:41:07;8.40;;;5.10;;
4555;SDS011;2290;48.674;9.018;2023-07-24T11:43:33;7.47;;;4.63;;
4555;SDS011;2290;48.674;9.018;2023-07-24T11:45:59;9.90;;;5.20;;
4555;SDS011;2290;48.674;9.018;2023-07-24T11:48:25;10.93;;;5.10;;
4555;SDS011;2290;48.674;9.018;2023-07-24T11:50:52;8.90;;;4.70;;
4555;SDS011;2290;48.674;9.018;2023-07-24T11:53:28;8.50;;;4.70;;
4555;SDS011;2290;48.674;9.018;2023-07-24T11:55:56;7.97;;;4.70;;
4555;SDS011;2290;48.674;9.018;2023-07-24T11:58:29;10.40;;;5.07;;
4555;SDS011;2290;48.674;9.018;2023-07-24T12:00:55;8.20;;;4.90;;
4555;SDS011;2290;48.674;9.018;2023-07-24T12:03:21;8.23;;;5.20;;
4555;SDS011;2290;48.674;9.018;2023-07-24T12:05:49;6.70;;;4.10;;
4555;SDS011;2290;48.674;9.018;2023-07-24T12:08:15;8.50;;;4.70;;
4555;SDS011;2290;48.674;9.018;2023-07-24T12:10:45;6.63;;;4.70;;
4555;SDS011;2290;48.674;9.018;2023-07-24T12:13:10;6.80;;;4.63;;
4555;SDS011;2290;48.674;9.018;2023-07-24T12:15:36;7.97;;;4.40;;
4555;SDS011;2290;48.674;9.018;2023-07-24T12:18:04;6.60;;;4.30;;
4555;SDS011;2290;48.674;9.018;2023-07-24T12:20:30;7.70;;;5.37;;
4555;SDS011;2290;48.674;9.018;2023-07-24T12:22:57;7.17;;;5.50;;
4555;SDS011;2290;48.674;9.018;2023-07-24T12:25:22;8.60;;;5.47;;
4555;SDS011;2290;48.674;9.018;2023-07-24T12:27:50;9.80;;;4.90;;
4555;SDS011;2290;48.674;9.018;2023-07-24T12:30:16;7.20;;;4.77;;
4555;SDS011;2290;48.674;9.018;2023-07-24T12:32:42;7.03;;;4.23;;
4555;SDS011;2290;48.674;9.018;2023-07-24T12:35:07;6.63;;;4.50;;
4555;SDS011;2290;48.674;9.018;2023-07-24T12:37:35;8.00;;;4.30;;
4555;SDS011;2290;48.674;9.018;2023-07-24T12:40:04;7.40;;;4.40;;
4555;SDS011;2290;48.674;9.018;2023-07-24T12:42:32;7.13;;;4.10;;
4555;SDS011;2290;48.674;9.018;2023-07-24T12:44:59;5.20;;;4.10;;
4555;SDS011;2290;48.674;9.018;2023-07-24T12:47:27;9.93;;;4.67;;
4555;SDS011;2290;48.674;9.018;2023-07-24T12:49:53;8.00;;;4.60;;
4555;SDS011;2290;48.674;9.018;2023-07-24T12:52:21;6.50;;;4.33;;
4555;SDS011;2290;48.674;9.018;2023-07-24T12:54:47;9.43;;;4.37;;
4555;SDS011;2290;48.674;9.018;2023-07-24T12:57:13;7.43;;;3.93;;
4555;SDS011;2290;48.674;9.018;2023-07-24T12:59:38;8.20;;;5.13;;
4555;SDS011;2290;48.674;9.018;2023-07-24T13:02:05;6.80;;;4.03;;
4555;SDS011;2290;48.674;9.018;2023-07-24T13:04:31;7.40;;;4.27;;
4555;SDS011;2290;48.674;9.018;2023-07-24T13:06:57;9.00;;;4.07;;
4555;SDS011;2290;48.674;9.018;2023-07-24T13:09:24;6.70;;;3.90;;
4555;SDS011;2290;48.674;9.018;2023-07-24T13:11:51;7.80;;;4.20;;
4555;SDS011;2290;48.674;9.018;2023-07-24T13:14:19;7.47;;;4.50;;
4555;SDS011;2290;48.674;9.018;2023-07-24T13:16:45;6.10;;;3.83;;
4555;SDS011;2290;48.674;9.018;2023-07-24T13:19:12;6.00;;;3.77;;
4555;SDS011;2290;48.674;9.018;2023-07-24T13:21:39;5.60;;;3.80;;
4555;SDS011;2290;48.674;9.018;2023-07-24T13:24:05;4.20;;;3.30;;
4555;SDS011;2290;48.674;9.018;2023-07-24T13:26:31;6.70;;;3.77;;
4555;SDS011;2290;48.674;9.018;2023-07-24T13:28:57;5.20;;;3.47;;
4555;SDS011;2290;48.674;9.018;2023-07-24T13:31:23;5.07;;;3.57;;
4555;SDS011;2290;48.674;9.018;2023-07-24T13:33:50;5.60;;;3.70;;
4555;SDS011;2290;48.674;9.018;2023-07-24T13:36:16;5.20;;;3.73;;
4555;SDS011;2290;48.674;9.018;2023-07-24T13:38:41;7.23;;;4.40;;
4555;SDS011;2290;48.674;9.018;2023-07-24T13:41:07;6.10;;;4.40;;
4555;SDS011;2290;48.674;9.018;2023-07-24T13:43:35;7.03;;;4.17;;
4555;SDS011;2290;48.674;9.018;2023-07-24T13:46:01;9.97;;;3.70;;
4555;SDS011;2290;48.674;9.018;2023-07-24T13:48:27;4.43;;;3.33;;
4555;SDS011;2290;48.674;9.018;2023-07-24T13:50:53;5.17;;;3.37;;
4555;SDS011;2290;48.674;9.018;2023-07-24T13:53:20;5.23;;;3.40;;
4555;SDS011;2290;48.674;9.018;2023-07-24T13:55:46;5.70;;;3.43;;
4555;SDS011;2290;48.674;9.018;2023-07-24T13:58:12;5.03;;;3.70;;
4555;SDS011;2290;48.674;9.018;2023-07-24T14:00:38;5.03;;;3.27;;
4555;SDS011;2290;48.674;9.018;2023-07-24T14:03:03;4.33;;;3.50;;
4555;SDS011;2290;48.674;9.018;2023-07-24T14:05:29;5.53;;;3.40;;
4555;SDS011;2290;48.674;9.018;2023-07-24T14:07:54;4.27;;;3.00;;
4555;SDS011;2290;48.674;9.018;2023-07-24T14:10:20;6.83;;;3.77;;
4555;SDS011;2290;48.674;9.018;2023-07-24T14:12:46;6.73;;;3.40;;
4555;SDS011;2290;48.674;9.018;2023-07-24T14:15:11;4.37;;;2.80;;
4555;SDS011;2290;48.674;9.018;2023-07-24T14:17:37;5.50;;;3.40;;
4555;SDS011;2290;48.674;9.018;2023-07-24T14:20:03;4.00;;;3.10;;
4555;SDS011;2290;48.674;9.018;2023-07-24T14:22:29;6.20;;;3.47;;
4555;SDS011;2290;48.674;9.018;2023-07-24T14:24:54;7.60;;;3.83;;
4555;SDS011;2290;48.674;9.018;2023-07-24T14:27:20;4.50;;;2.93;;
4555;SDS011;2290;48.674;9.018;2023-07-24T14:29:45;6.50;;;3.60;;
4555;SDS011;2290;48.674;9.018;2023-07-24T14:32:11;6.87;;;3.73;;
4555;SDS011;2290;48.674;9.018;2023-07-24T14:34:36;6.00;;;3.40;;
4555;SDS011;2290;48.674;9.018;2023-07-24T14:37:02;4.67;;;3.40;;
4555;SDS011;2290;48.674;9.018;2023-07-24T14:39:28;5.70;;;3.07;;
4555;SDS011;2290;48.674;9.018;2023-07-24T14:41:53;4.83;;;2.93;;
4555;SDS011;2290;48.674;9.018;2023-07-24T14:44:19;6.17;;;3.60;;
4555;SDS011;2290;48.674;9.018;2023-07-24T14:46:44;5.43;;;3.30;;
4555;SDS011;2290;48.674;9.018;2023-07-24T14:49:10;5.90;;;3.33;;
4555;SDS011;2290;48.674;9.018;2023-07-24T14:51:35;5.37;;;3.50;;
4555;SDS011;2290;48.674;9.018;2023-07-24T14:54:01;5.30;;;3.43;;
4555;SDS011;2290;48.674;9.018;2023-07-24T14:56:27;5.70;;;2.90;;
4555;SDS011;2290;48.674;9.018;2023-07-24T14:58:52;4.30;;;2.97;;
4555;SDS011;2290;48.674;9.018;2023-07-24T15:01:18;8.50;;;3.50;;
4555;SDS011;2290;48.674;9.018;2023-07-24T15:03:43;6.03;;;3.53;;
4555;SDS011;2290;48.674;9.018;2023-07-24T15:06:09;5.40;;;3.57;;
4555;SDS011;2290;48.674;9.018;2023-07-24T15:08:35;5.27;;;3.17;;
4555;SDS011;2290;48.674;9.018;2023-07-24T15:11:00;5.80;;;3.10;;
4555;SDS011;2290;48.674;9.018;2023-07-24T15:13:26;4.27;;;3.07;;